aviador You're here:

KPQL Decoded Metar

PASCAGOULA in MS, USA
Report Time2018-01-17 08:53:00
UTC Time2018-01-17 09:18:07
Flight Rules mvfr MVFR
Wind350° at 16 Gusting to 20 kt
W.Decomp.*RWY 35: 16.0 kt HW 0.3 kt LCW
W.Rank350° ranks 1
Current wind is above 350° avg. (6.6)
Visibility9999 m
Phenomena:N/A
Clouds:Overcast 017 Hf
Expected CloudBase > 1,200 ft AGL from Temp-Dew spread
Ceiling1,700 ft
Temp-4°C (ISA -19)
Dew Point-7°C (80% RH)
AAT-12.6°C
QNH1034 hPa
Density Alt-2,982 ft
Elevation20 ft
Report Wrong Elevation
Raw Report
KPQL 170853Z 35016G20KT 10SM OVC017 M04/M07 A3052 RMK AO2 UPE0756
SLP335 P0000 60000 T10441072 53007 $=

Extra information for KPQL:More info

Metar Taf Metar & Taf Last 4 Metars F.Rules Stats Wind Profile Meteogram Temp Stats Airport Information Weather charts Add Link Nearby VenuesMetar ALERT Operation Metar Decoded Social comments

AIRNAV info for KPQL